sensor_id;sensor_type;location;lat;lon;timestamp;pressure;altitude;pressure_sealevel;temperature;humidity
58072;BME280;60383;46.626;18.866;2023-03-03T00:00:35;100688.50;;;5.77;94.97
58072;BME280;60383;46.626;18.866;2023-03-03T00:03:04;100694.72;;;5.79;95.00
58072;BME280;60383;46.626;18.866;2023-03-03T00:05:33;100692.63;;;5.83;94.14
58072;BME280;60383;46.626;18.866;2023-03-03T00:08:00;100694.47;;;5.82;94.30
58072;BME280;60383;46.626;18.866;2023-03-03T00:10:26;100695.22;;;5.84;94.68
58072;BME280;60383;46.626;18.866;2023-03-03T00:12:51;100683.25;;;5.87;93.74
58072;BME280;60383;46.626;18.866;2023-03-03T00:15:19;100690.03;;;5.92;94.32
58072;BME280;60383;46.626;18.866;2023-03-03T00:17:45;100695.47;;;5.92;93.99
58072;BME280;60383;46.626;18.866;2023-03-03T00:22:57;100694.84;;;5.89;94.70
58072;BME280;60383;46.626;18.866;2023-03-03T00:25:33;100695.34;;;5.94;94.28
58072;BME280;60383;46.626;18.866;2023-03-03T00:28:24;100695.47;;;5.92;95.32
58072;BME280;60383;46.626;18.866;2023-03-03T00:30:53;100694.50;;;5.94;95.00
58072;BME280;60383;46.626;18.866;2023-03-03T00:33:29;100687.81;;;5.98;95.53
58072;BME280;60383;46.626;18.866;2023-03-03T00:36:27;100686.97;;;5.97;95.04
58072;BME280;60383;46.626;18.866;2023-03-03T00:38:59;100680.31;;;6.01;95.06
58072;BME280;60383;46.626;18.866;2023-03-03T00:41:38;100684.03;;;6.00;95.45
58072;BME280;60383;46.626;18.866;2023-03-03T00:44:39;100678.31;;;5.92;95.92
58072;BME280;60383;46.626;18.866;2023-03-03T00:47:28;100679.28;;;5.91;95.31
58072;BME280;60383;46.626;18.866;2023-03-03T00:52:36;100670.50;;;5.87;95.61
58072;BME280;60383;46.626;18.866;2023-03-03T00:55:03;100663.97;;;5.90;95.85
58072;BME280;60383;46.626;18.866;2023-03-03T00:57:29;100659.78;;;5.86;96.20
58072;BME280;60383;46.626;18.866;2023-03-03T00:59:55;100667.03;;;5.74;97.04
58072;BME280;60383;46.626;18.866;2023-03-03T01:02:21;100665.91;;;5.76;97.35
58072;BME280;60383;46.626;18.866;2023-03-03T01:04:51;100664.59;;;5.82;96.81
58072;BME280;60383;46.626;18.866;2023-03-03T01:07:17;100654.44;;;5.84;96.65
58072;BME280;60383;46.626;18.866;2023-03-03T01:09:43;100661.88;;;5.82;96.24
58072;BME280;60383;46.626;18.866;2023-03-03T01:12:09;100659.72;;;5.74;96.84
58072;BME280;60383;46.626;18.866;2023-03-03T01:14:35;100662.84;;;5.81;96.55
58072;BME280;60383;46.626;18.866;2023-03-03T01:17:01;100658.25;;;5.82;96.02
58072;BME280;60383;46.626;18.866;2023-03-03T01:19:27;100652.72;;;5.83;96.11
58072;BME280;60383;46.626;18.866;2023-03-03T01:21:52;100649.63;;;5.76;96.43
58072;BME280;60383;46.626;18.866;2023-03-03T01:24:18;100649.13;;;5.71;96.38
58072;BME280;60383;46.626;18.866;2023-03-03T01:26:43;100649.38;;;5.80;97.12
58072;BME280;60383;46.626;18.866;2023-03-03T01:29:09;100646.66;;;5.80;96.53
58072;BME280;60383;46.626;18.866;2023-03-03T01:31:34;100649.63;;;5.76;96.43
58072;BME280;60383;46.626;18.866;2023-03-03T01:34:00;100647.53;;;5.80;96.57
58072;BME280;60383;46.626;18.866;2023-03-03T01:36:27;100639.72;;;5.64;97.44
58072;BME280;60383;46.626;18.866;2023-03-03T01:38:52;100642.03;;;5.57;97.55
58072;BME280;60383;46.626;18.866;2023-03-03T01:41:18;100645.03;;;5.66;97.63
58072;BME280;60383;46.626;18.866;2023-03-03T01:43:46;100645.28;;;5.74;97.56
58072;BME280;60383;46.626;18.866;2023-03-03T01:48:52;100648.09;;;5.61;97.96
58072;BME280;60383;46.626;18.866;2023-03-03T01:51:25;100636.63;;;5.69;97.88
58072;BME280;60383;46.626;18.866;2023-03-03T01:54:02;100632.53;;;5.63;98.26
58072;BME280;60383;46.626;18.866;2023-03-03T01:56:28;100632.53;;;5.63;98.23
58072;BME280;60383;46.626;18.866;2023-03-03T01:59:07;100626.63;;;5.69;97.61
58072;BME280;60383;46.626;18.866;2023-03-03T02:01:34;100627.47;;;5.70;98.18
58072;BME280;60383;46.626;18.866;2023-03-03T02:04:00;100625.84;;;5.56;97.88
58072;BME280;60383;46.626;18.866;2023-03-03T02:06:30;100629.56;;;5.55;98.70
58072;BME280;60383;46.626;18.866;2023-03-03T02:09:06;100629.97;;;5.62;99.24
58072;BME280;60383;46.626;18.866;2023-03-03T02:11:35;100630.44;;;5.67;98.52
58072;BME280;60383;46.626;18.866;2023-03-03T02:14:02;100619.94;;;5.73;98.13
58072;BME280;60383;46.626;18.866;2023-03-03T02:16:27;100621.94;;;5.71;98.53
58072;BME280;60383;46.626;18.866;2023-03-03T02:18:53;100628.97;;;5.74;98.30
58072;BME280;60383;46.626;18.866;2023-03-03T02:21:21;100618.72;;;5.66;98.34
58072;BME280;60383;46.626;18.866;2023-03-03T02:23:57;100611.44;;;5.67;98.40
58072;BME280;60383;46.626;18.866;2023-03-03T02:26:29;100612.41;;;5.66;98.45
58072;BME280;60383;46.626;18.866;2023-03-03T02:28:56;100614.91;;;5.69;98.77
58072;BME280;60383;46.626;18.866;2023-03-03T02:31:24;100609.47;;;5.69;97.97
58072;BME280;60383;46.626;18.866;2023-03-03T02:33:51;100611.50;;;5.54;98.40
58072;BME280;60383;46.626;18.866;2023-03-03T02:38:50;100604.59;;;5.50;98.79
58072;BME280;60383;46.626;18.866;2023-03-03T02:41:32;100599.03;;;5.51;98.04
58072;BME280;60383;46.626;18.866;2023-03-03T02:44:07;100603.84;;;5.36;98.64
58072;BME280;60383;46.626;18.866;2023-03-03T02:46:38;100593.13;;;5.46;98.64
58072;BME280;60383;46.626;18.866;2023-03-03T02:49:06;100599.66;;;5.55;98.17
58072;BME280;60383;46.626;18.866;2023-03-03T02:51:32;100598.91;;;5.41;98.27
58072;BME280;60383;46.626;18.866;2023-03-03T02:53:58;100596.19;;;5.41;97.92
58072;BME280;60383;46.626;18.866;2023-03-03T02:56:23;100589.41;;;5.47;98.16
58072;BME280;60383;46.626;18.866;2023-03-03T02:58:49;100595.00;;;5.57;97.85
58072;BME280;60383;46.626;18.866;2023-03-03T03:01:14;100593.25;;;5.56;98.32
58072;BME280;60383;46.626;18.866;2023-03-03T03:03:40;100585.84;;;5.58;97.88
58072;BME280;60383;46.626;18.866;2023-03-03T03:06:06;100593.38;;;5.54;98.04
58072;BME280;60383;46.626;18.866;2023-03-03T03:08:31;100592.84;;;5.49;97.75
58072;BME280;60383;46.626;18.866;2023-03-03T03:10:57;100591.38;;;5.45;97.98
58072;BME280;60383;46.626;18.866;2023-03-03T03:13:23;100592.13;;;5.47;98.26
58072;BME280;60383;46.626;18.866;2023-03-03T03:15:49;100584.97;;;5.46;97.80
58072;BME280;60383;46.626;18.866;2023-03-03T03:18:14;100585.72;;;5.48;97.61
58072;BME280;60383;46.626;18.866;2023-03-03T03:20:41;100584.13;;;5.46;98.47
58072;BME280;60383;46.626;18.866;2023-03-03T03:23:07;100582.88;;;5.50;98.06
58072;BME280;60383;46.626;18.866;2023-03-03T03:25:34;100576.69;;;5.48;97.54
58072;BME280;60383;46.626;18.866;2023-03-03T03:28:00;100584.22;;;5.44;98.27
58072;BME280;60383;46.626;18.866;2023-03-03T03:30:25;100583.84;;;5.49;98.06
58072;BME280;60383;46.626;18.866;2023-03-03T03:32:51;100585.72;;;5.48;98.05
58072;BME280;60383;46.626;18.866;2023-03-03T03:35:16;100577.09;;;5.54;97.93
58072;BME280;60383;46.626;18.866;2023-03-03T03:37:43;100576.69;;;5.48;98.05
58072;BME280;60383;46.626;18.866;2023-03-03T03:40:09;100580.50;;;5.45;97.73
58072;BME280;60383;46.626;18.866;2023-03-03T03:42:35;100573.97;;;5.36;97.98
58072;BME280;60383;46.626;18.866;2023-03-03T03:45:01;100575.22;;;5.43;98.32
58072;BME280;60383;46.626;18.866;2023-03-03T03:47:27;100582.72;;;5.40;97.78
58072;BME280;60383;46.626;18.866;2023-03-03T03:49:52;100578.91;;;5.54;97.70
58072;BME280;60383;46.626;18.866;2023-03-03T03:52:18;100572.84;;;5.39;98.48
58072;BME280;60383;46.626;18.866;2023-03-03T03:54:43;100566.16;;;5.32;98.80
58072;BME280;60383;46.626;18.866;2023-03-03T03:57:09;100567.91;;;5.33;98.89
58072;BME280;60383;46.626;18.866;2023-03-03T03:59:34;100568.16;;;5.41;98.33
58072;BME280;60383;46.626;18.866;2023-03-03T04:02:00;100568.75;;;5.33;98.96
58072;BME280;60383;46.626;18.866;2023-03-03T04:04:25;100569.59;;;5.22;99.16
58072;BME280;60383;46.626;18.866;2023-03-03T04:06:51;100575.78;;;5.24;99.59
58072;BME280;60383;46.626;18.866;2023-03-03T04:09:16;100563.84;;;5.03;100.00
58072;BME280;60383;46.626;18.866;2023-03-03T04:11:41;100579.78;;;5.07;100.00
58072;BME280;60383;46.626;18.866;2023-03-03T04:14:07;100573.88;;;4.78;100.00
58072;BME280;60383;46.626;18.866;2023-03-03T04:16:33;100572.34;;;4.98;100.00
58072;BME280;60383;46.626;18.866;2023-03-03T04:18:58;100569.66;;;4.74;100.00
58072;BME280;60383;46.626;18.866;2023-03-03T04:21:24;100572.31;;;4.87;100.00
58072;BME280;60383;46.626;18.866;2023-03-03T04:23:50;100568.63;;;4.63;100.00
58072;BME280;60383;46.626;18.866;2023-03-03T04:26:15;100574.69;;;4.67;100.00
58072;BME280;60383;46.626;18.866;2023-03-03T04:28:41;100572.09;;;4.90;97.83
58072;BME280;60383;46.626;18.866;2023-03-03T04:31:06;100570.25;;;4.42;98.84
58072;BME280;60383;46.626;18.866;2023-03-03T04:33:32;100569.63;;;4.62;98.16
58072;BME280;60383;46.626;18.866;2023-03-03T04:35:57;100569.66;;;4.74;97.98
58072;BME280;60383;46.626;18.866;2023-03-03T04:38:23;100571.69;;;4.83;97.46
58072;BME280;60383;46.626;18.866;2023-03-03T04:40:48;100569.53;;;5.00;96.01
58072;BME280;60383;46.626;18.866;2023-03-03T04:43:14;100567.66;;;4.89;95.44
58072;BME280;60383;46.626;18.866;2023-03-03T04:45:39;100567.94;;;4.73;95.89
58072;BME280;60383;46.626;18.866;2023-03-03T04:48:05;100570.34;;;4.89;95.11
58072;BME280;60383;46.626;18.866;2023-03-03T04:50:31;100573.38;;;4.73;95.72
58072;BME280;60383;46.626;18.866;2023-03-03T04:52:56;100571.56;;;4.85;95.86
58072;BME280;60383;46.626;18.866;2023-03-03T04:55:22;100571.75;;;4.70;95.71
58072;BME280;60383;46.626;18.866;2023-03-03T04:57:47;100566.38;;;4.82;95.01
58072;BME280;60383;46.626;18.866;2023-03-03T05:00:14;100562.22;;;4.64;95.39
58072;BME280;60383;46.626;18.866;2023-03-03T05:02:40;100568.69;;;4.75;95.14
58072;BME280;60383;46.626;18.866;2023-03-03T05:05:07;100570.88;;;4.94;94.76
58072;BME280;60383;46.626;18.866;2023-03-03T05:07:34;100569.84;;;4.84;94.61
58072;BME280;60383;46.626;18.866;2023-03-03T05:09:59;100564.69;;;4.92;94.08
58072;BME280;60383;46.626;18.866;2023-03-03T05:12:25;100565.44;;;4.94;93.83
58072;BME280;60383;46.626;18.866;2023-03-03T05:14:51;100571.50;;;4.98;94.38
58072;BME280;60383;46.626;18.866;2023-03-03T05:17:17;100575.59;;;5.03;93.30
58072;BME280;60383;46.626;18.866;2023-03-03T05:19:42;100576.50;;;4.91;92.64
58072;BME280;60383;46.626;18.866;2023-03-03T05:22:08;100567.16;;;4.59;94.33
58072;BME280;60383;46.626;18.866;2023-03-03T05:24:34;100575.00;;;4.51;95.56
58072;BME280;60383;46.626;18.866;2023-03-03T05:27:00;100580.75;;;4.71;94.50
58072;BME280;60383;46.626;18.866;2023-03-03T05:29:25;100579.00;;;4.94;93.95
58072;BME280;60383;46.626;18.866;2023-03-03T05:31:52;100579.81;;;4.83;93.52
58072;BME280;60383;46.626;18.866;2023-03-03T05:34:18;100582.75;;;5.04;93.29
58072;BME280;60383;46.626;18.866;2023-03-03T05:36:43;100584.75;;;5.14;93.05
58072;BME280;60383;46.626;18.866;2023-03-03T05:39:09;100585.25;;;5.19;93.10
58072;BME280;60383;46.626;18.866;2023-03-03T05:41:34;100578.34;;;5.26;91.96
58072;BME280;60383;46.626;18.866;2023-03-03T05:44:01;100576.28;;;5.30;91.90
58072;BME280;60383;46.626;18.866;2023-03-03T05:46:27;100584.19;;;5.21;93.12
58072;BME280;60383;46.626;18.866;2023-03-03T05:48:52;100589.31;;;5.13;93.84
58072;BME280;60383;46.626;18.866;2023-03-03T05:51:18;100589.47;;;5.23;93.10
58072;BME280;60383;46.626;18.866;2023-03-03T05:53:43;100588.75;;;5.32;92.39
58072;BME280;60383;46.626;18.866;2023-03-03T05:56:09;100590.75;;;5.41;91.51
58072;BME280;60383;46.626;18.866;2023-03-03T05:58:34;100590.63;;;5.43;90.62
58072;BME280;60383;46.626;18.866;2023-03-03T06:01:00;100600.38;;;5.34;92.00
58072;BME280;60383;46.626;18.866;2023-03-03T06:03:25;100597.84;;;5.20;92.27
58072;BME280;60383;46.626;18.866;2023-03-03T06:05:50;100602.16;;;5.22;92.44
58072;BME280;60383;46.626;18.866;2023-03-03T06:08:16;100600.00;;;5.27;92.17
58072;BME280;60383;46.626;18.866;2023-03-03T06:10:41;100608.84;;;5.18;93.29
58072;BME280;60383;46.626;18.866;2023-03-03T06:13:07;100605.28;;;5.29;93.42
58072;BME280;60383;46.626;18.866;2023-03-03T06:15:32;100609.59;;;5.20;92.93
58072;BME280;60383;46.626;18.866;2023-03-03T06:17:58;100614.13;;;5.20;93.36
58072;BME280;60383;46.626;18.866;2023-03-03T06:20:23;100609.97;;;5.27;94.10
58072;BME280;60383;46.626;18.866;2023-03-03T06:22:49;100611.47;;;5.31;95.31
58072;BME280;60383;46.626;18.866;2023-03-03T06:25:14;100616.28;;;5.27;95.12
58072;BME280;60383;46.626;18.866;2023-03-03T06:27:40;100616.16;;;5.29;95.29
58072;BME280;60383;46.626;18.866;2023-03-03T06:30:06;100623.22;;;5.07;96.05
58072;BME280;60383;46.626;18.866;2023-03-03T06:32:31;100613.69;;;5.02;96.38
58072;BME280;60383;46.626;18.866;2023-03-03T06:34:57;100617.97;;;5.17;96.26
58072;BME280;60383;46.626;18.866;2023-03-03T06:37:22;100618.38;;;5.24;96.00
58072;BME280;60383;46.626;18.866;2023-03-03T06:39:47;100625.16;;;5.30;96.04
58072;BME280;60383;46.626;18.866;2023-03-03T06:42:13;100621.78;;;5.15;96.21
58072;BME280;60383;46.626;18.866;2023-03-03T06:44:38;100625.59;;;5.12;97.15
58072;BME280;60383;46.626;18.866;2023-03-03T06:47:04;100622.22;;;5.33;96.32
58072;BME280;60383;46.626;18.866;2023-03-03T06:49:30;100621.38;;;5.43;94.87
58072;BME280;60383;46.626;18.866;2023-03-03T06:51:58;100625.31;;;5.39;95.07
58072;BME280;60383;46.626;18.866;2023-03-03T06:54:29;100637.44;;;5.47;94.23
58072;BME280;60383;46.626;18.866;2023-03-03T06:56:58;100636.56;;;5.46;94.71
58072;BME280;60383;46.626;18.866;2023-03-03T06:59:26;100626.00;;;5.66;92.67
58072;BME280;60383;46.626;18.866;2023-03-03T07:01:52;100632.31;;;5.78;91.17
58072;BME280;60383;46.626;18.866;2023-03-03T07:04:26;100629.59;;;5.78;91.70
58072;BME280;60383;46.626;18.866;2023-03-03T07:07:24;100640.47;;;5.78;91.60
58072;BME280;60383;46.626;18.866;2023-03-03T07:09:52;100641.22;;;5.91;90.48
58072;BME280;60383;46.626;18.866;2023-03-03T07:12:27;100647.75;;;5.77;90.83
58072;BME280;60383;46.626;18.866;2023-03-03T07:15:14;100645.50;;;5.59;92.00
58072;BME280;60383;46.626;18.866;2023-03-03T07:17:44;100645.44;;;5.84;91.69
58072;BME280;60383;46.626;18.866;2023-03-03T07:20:28;100646.75;;;5.78;92.21
58072;BME280;60383;46.626;18.866;2023-03-03T07:22:54;100646.66;;;5.80;92.35
58072;BME280;60383;46.626;18.866;2023-03-03T07:25:33;100645.44;;;5.95;91.52
58072;BME280;60383;46.626;18.866;2023-03-03T07:30:46;100649.03;;;5.96;91.85
58072;BME280;60383;46.626;18.866;2023-03-03T07:33:28;100649.91;;;6.07;91.53
58072;BME280;60383;46.626;18.866;2023-03-03T07:35:56;100655.00;;;6.12;91.25
58072;BME280;60383;46.626;18.866;2023-03-03T07:41:04;100656.13;;;6.21;91.44
58072;BME280;60383;46.626;18.866;2023-03-03T07:43:36;100640.78;;;6.20;92.03
58072;BME280;60383;46.626;18.866;2023-03-03T07:46:25;100642.16;;;6.37;92.22
58072;BME280;60383;46.626;18.866;2023-03-03T07:48:56;100633.59;;;6.30;92.44
58072;BME280;60383;46.626;18.866;2023-03-03T07:51:25;100641.25;;;6.36;91.31
58072;BME280;60383;46.626;18.866;2023-03-03T07:53:53;100642.00;;;6.38;91.04
58072;BME280;60383;46.626;18.866;2023-03-03T07:56:29;100639.03;;;6.30;91.28
58072;BME280;60383;46.626;18.866;2023-03-03T07:58:59;100639.25;;;6.50;90.40
58072;BME280;60383;46.626;18.866;2023-03-03T08:01:31;100641.34;;;6.69;90.86
58072;BME280;60383;46.626;18.866;2023-03-03T08:04:00;100635.75;;;6.70;90.33
58072;BME280;60383;46.626;18.866;2023-03-03T08:06:45;100636.00;;;6.79;90.64
58072;BME280;60383;46.626;18.866;2023-03-03T08:11:57;100637.88;;;6.78;90.05
58072;BME280;60383;46.626;18.866;2023-03-03T08:14:26;100636.59;;;6.82;90.63
58072;BME280;60383;46.626;18.866;2023-03-03T08:16:54;100638.72;;;6.79;89.27
58072;BME280;60383;46.626;18.866;2023-03-03T08:19:20;100634.59;;;6.96;88.73
58072;BME280;60383;46.626;18.866;2023-03-03T08:21:46;100633.75;;;7.16;88.06
58072;BME280;60383;46.626;18.866;2023-03-03T08:24:11;100632.47;;;7.32;88.53
58072;BME280;60383;46.626;18.866;2023-03-03T08:26:37;100627.00;;;7.53;87.76
58072;BME280;60383;46.626;18.866;2023-03-03T08:29:02;100623.31;;;7.75;85.31
58072;BME280;60383;46.626;18.866;2023-03-03T08:31:28;100623.41;;;7.95;84.04
58072;BME280;60383;46.626;18.866;2023-03-03T08:33:53;100619.13;;;8.02;82.49
58072;BME280;60383;46.626;18.866;2023-03-03T08:36:19;100625.66;;;7.90;83.53
58072;BME280;60383;46.626;18.866;2023-03-03T08:38:44;100627.63;;;8.09;84.83
58072;BME280;60383;46.626;18.866;2023-03-03T08:41:10;100627.56;;;8.20;81.53
58072;BME280;60383;46.626;18.866;2023-03-03T08:43:36;100628.88;;;7.74;82.90
58072;BME280;60383;46.626;18.866;2023-03-03T08:46:03;100628.06;;;7.41;84.47
58072;BME280;60383;46.626;18.866;2023-03-03T08:48:30;100633.00;;;7.26;87.21
58072;BME280;60383;46.626;18.866;2023-03-03T08:50:55;100635.94;;;7.01;87.11
58072;BME280;60383;46.626;18.866;2023-03-03T08:53:22;100631.13;;;7.26;86.63
58072;BME280;60383;46.626;18.866;2023-03-03T08:55:48;100627.94;;;7.42;86.00
58072;BME280;60383;46.626;18.866;2023-03-03T08:58:15;100635.19;;;7.32;86.53
58072;BME280;60383;46.626;18.866;2023-03-03T09:00:41;100634.03;;;7.13;87.06
58072;BME280;60383;46.626;18.866;2023-03-03T09:03:07;100641.91;;;6.95;87.79
58072;BME280;60383;46.626;18.866;2023-03-03T09:05:34;100631.00;;;7.49;86.01
58072;BME280;60383;46.626;18.866;2023-03-03T09:08:01;100635.47;;;7.50;86.59
58072;BME280;60383;46.626;18.866;2023-03-03T09:10:27;100631.75;;;7.51;84.60
58072;BME280;60383;46.626;18.866;2023-03-03T09:12:56;100632.63;;;7.19;86.50
58072;BME280;60383;46.626;18.866;2023-03-03T09:15:29;100634.34;;;7.53;86.01
58072;BME280;60383;46.626;18.866;2023-03-03T09:18:04;100641.66;;;7.73;84.47
58072;BME280;60383;46.626;18.866;2023-03-03T09:20:46;100642.06;;;6.82;89.79
58072;BME280;60383;46.626;18.866;2023-03-03T09:23:39;100638.59;;;7.13;88.67
58072;BME280;60383;46.626;18.866;2023-03-03T09:31:51;100640.41;;;7.24;87.63
58072;BME280;60383;46.626;18.866;2023-03-03T09:34:29;100644.03;;;7.45;86.74
58072;BME280;60383;46.626;18.866;2023-03-03T09:37:33;100636.63;;;7.36;86.90
58072;BME280;60383;46.626;18.866;2023-03-03T09:40:17;100640.44;;;7.45;87.00
58072;BME280;60383;46.626;18.866;2023-03-03T09:50:57;100649.22;;;7.70;87.96
58072;BME280;60383;46.626;18.866;2023-03-03T10:17:25;100633.31;;;8.58;83.37
58072;BME280;60383;46.626;18.866;2023-03-03T10:23:33;100627.50;;;9.02;80.49
58072;BME280;60383;46.626;18.866;2023-03-03T10:28:52;100631.81;;;9.34;77.60
58072;BME280;60383;46.626;18.866;2023-03-03T10:52:38;100611.69;;;9.25;76.20
58072;BME280;60383;46.626;18.866;2023-03-03T10:57:52;100615.56;;;9.22;76.03
58072;BME280;60383;46.626;18.866;2023-03-03T11:00:30;100617.72;;;9.09;76.83
58072;BME280;60383;46.626;18.866;2023-03-03T11:03:09;100610.38;;;9.00;77.16
58072;BME280;60383;46.626;18.866;2023-03-03T11:05:53;100613.25;;;8.88;77.70
58072;BME280;60383;46.626;18.866;2023-03-03T11:28:58;100607.78;;;8.38;81.57
58072;BME280;60383;46.626;18.866;2023-03-03T11:33:44;100598.97;;;8.24;82.35
58072;BME280;60383;46.626;18.866;2023-03-03T11:36:42;100609.78;;;8.36;82.00
58072;BME280;60383;46.626;18.866;2023-03-03T11:39:08;100593.50;;;8.24;82.04
58072;BME280;60383;46.626;18.866;2023-03-03T11:41:40;100606.34;;;8.03;83.08
58072;BME280;60383;46.626;18.866;2023-03-03T11:44:28;100598.97;;;8.24;81.60
58072;BME280;60383;46.626;18.866;2023-03-03T11:47:05;100598.34;;;8.11;82.21
58072;BME280;60383;46.626;18.866;2023-03-03T11:49:54;100595.69;;;8.30;81.07
58072;BME280;60383;46.626;18.866;2023-03-03T11:54:58;100594.84;;;8.30;80.79
58072;BME280;60383;46.626;18.866;2023-03-03T11:57:40;100588.75;;;8.57;80.14
58072;BME280;60383;46.626;18.866;2023-03-03T12:03:00;100582.50;;;8.45;80.56
58072;BME280;60383;46.626;18.866;2023-03-03T12:05:42;100590.34;;;8.60;79.32
58072;BME280;60383;46.626;18.866;2023-03-03T12:13:50;100586.13;;;8.46;79.88
58072;BME280;60383;46.626;18.866;2023-03-03T12:16:55;100580.00;;;8.63;78.44
58072;BME280;60383;46.626;18.866;2023-03-03T12:30:13;100573.69;;;8.83;78.18
58072;BME280;60383;46.626;18.866;2023-03-03T12:32:50;100573.13;;;9.08;75.65
58072;BME280;60383;46.626;18.866;2023-03-03T12:38:28;100578.44;;;8.90;77.65
58072;BME280;60383;46.626;18.866;2023-03-03T12:46:45;100569.41;;;8.90;76.94
58072;BME280;60383;46.626;18.866;2023-03-03T12:49:14;100571.41;;;8.98;76.99
58072;BME280;60383;46.626;18.866;2023-03-03T12:52:02;100572.69;;;9.03;76.51
58072;BME280;60383;46.626;18.866;2023-03-03T12:57:34;100563.50;;;8.94;76.82
58072;BME280;60383;46.626;18.866;2023-03-03T13:02:39;100560.34;;;8.99;76.54
58072;BME280;60383;46.626;18.866;2023-03-03T13:08:21;100569.38;;;8.80;77.59
58072;BME280;60383;46.626;18.866;2023-03-03T13:19:28;100552.59;;;8.85;76.32
58072;BME280;60383;46.626;18.866;2023-03-03T13:22:03;100555.16;;;8.86;76.58
58072;BME280;60383;46.626;18.866;2023-03-03T13:24:42;100555.72;;;8.80;76.66
58072;BME280;60383;46.626;18.866;2023-03-03T13:27:12;100553.44;;;8.85;76.81
58072;BME280;60383;46.626;18.866;2023-03-03T13:30:00;100552.84;;;8.82;77.15
58072;BME280;60383;46.626;18.866;2023-03-03T13:33:04;100551.44;;;8.77;77.03
58072;BME280;60383;46.626;18.866;2023-03-03T13:35:46;100547.97;;;8.85;76.77
58072;BME280;60383;46.626;18.866;2023-03-03T13:38:19;100543.81;;;8.81;77.27
58072;BME280;60383;46.626;18.866;2023-03-03T13:43:48;100546.25;;;8.94;76.82
58072;BME280;60383;46.626;18.866;2023-03-03T13:46:33;100544.66;;;8.91;77.02
58072;BME280;60383;46.626;18.866;2023-03-03T13:51:56;100544.06;;;9.07;76.68
58072;BME280;60383;46.626;18.866;2023-03-03T13:54:54;100545.38;;;8.93;77.07
58072;BME280;60383;46.626;18.866;2023-03-03T13:57:49;100542.81;;;8.92;77.13
58072;BME280;60383;46.626;18.866;2023-03-03T14:00:33;100545.09;;;8.87;76.92
58072;BME280;60383;46.626;18.866;2023-03-03T14:05:56;100535.75;;;9.09;75.55
58072;BME280;60383;46.626;18.866;2023-03-03T14:22:03;100532.00;;;9.20;74.89
58072;BME280;60383;46.626;18.866;2023-03-03T14:24:30;100524.59;;;9.50;73.86
58072;BME280;60383;46.626;18.866;2023-03-03T14:26:58;100524.78;;;9.38;73.98
58072;BME280;60383;46.626;18.866;2023-03-03T14:32:00;100523.78;;;9.10;75.59
58072;BME280;60383;46.626;18.866;2023-03-03T14:34:40;100517.19;;;9.22;75.55
58072;BME280;60383;46.626;18.866;2023-03-03T14:37:28;100520.16;;;9.29;75.54
58072;BME280;60383;46.626;18.866;2023-03-03T14:40:20;100518.19;;;9.11;76.30
58072;BME280;60383;46.626;18.866;2023-03-03T14:45:38;100516.50;;;9.01;76.69
58072;BME280;60383;46.626;18.866;2023-03-03T14:50:43;100513.47;;;8.94;76.93
58072;BME280;60383;46.626;18.866;2023-03-03T14:55:49;100507.00;;;8.85;76.87
58072;BME280;60383;46.626;18.866;2023-03-03T15:03:59;100513.47;;;8.74;76.92
58072;BME280;60383;46.626;18.866;2023-03-03T15:06:41;100516.78;;;8.58;77.56
58072;BME280;60383;46.626;18.866;2023-03-03T15:14:45;100517.66;;;8.78;75.79
58072;BME280;60383;46.626;18.866;2023-03-03T15:17:40;100520.06;;;8.62;77.03
58072;BME280;60383;46.626;18.866;2023-03-03T15:28:09;100513.63;;;8.63;76.94
58072;BME280;60383;46.626;18.866;2023-03-03T15:30:50;100510.72;;;8.65;77.25
58072;BME280;60383;46.626;18.866;2023-03-03T15:35:58;100507.56;;;8.59;78.24
58072;BME280;60383;46.626;18.866;2023-03-03T15:41:15;100497.50;;;8.50;78.49
58072;BME280;60383;46.626;18.866;2023-03-03T15:43:51;100505.38;;;8.43;78.74
58072;BME280;60383;46.626;18.866;2023-03-03T16:02:55;100521.50;;;8.76;78.28
58072;BME280;60383;46.626;18.866;2023-03-03T16:05:27;100521.06;;;8.61;79.18
58072;BME280;60383;46.626;18.866;2023-03-03T16:08:21;100514.56;;;8.42;80.16
58072;BME280;60383;46.626;18.866;2023-03-03T16:13:51;100518.00;;;8.44;80.42
58072;BME280;60383;46.626;18.866;2023-03-03T16:22:10;100528.25;;;8.02;81.59
58072;BME280;60383;46.626;18.866;2023-03-03T16:30:35;100529.16;;;7.81;83.67
58072;BME280;60383;46.626;18.866;2023-03-03T16:35:32;100533.47;;;7.83;83.81
58072;BME280;60383;46.626;18.866;2023-03-03T16:38:10;100521.53;;;8.06;83.33
58072;BME280;60383;46.626;18.866;2023-03-03T16:45:49;100525.50;;;8.02;83.23
58072;BME280;60383;46.626;18.866;2023-03-03T16:57:11;100560.75;;;7.53;85.51
58072;BME280;60383;46.626;18.866;2023-03-03T17:02:46;100556.19;;;7.63;85.80
58072;BME280;60383;46.626;18.866;2023-03-03T17:05:26;100560.44;;;7.77;84.62
58072;BME280;60383;46.626;18.866;2023-03-03T17:10:26;100565.81;;;7.57;85.63
58072;BME280;60383;46.626;18.866;2023-03-03T17:22:25;100565.94;;;7.34;86.00
58072;BME280;60383;46.626;18.866;2023-03-03T17:24:59;100572.13;;;7.37;86.02
58072;BME280;60383;46.626;18.866;2023-03-03T17:27:35;100570.88;;;7.19;86.89
58072;BME280;60383;46.626;18.866;2023-03-03T17:30:11;100567.47;;;7.27;86.48
58072;BME280;60383;46.626;18.866;2023-03-03T17:32:52;100570.53;;;7.34;86.33
58072;BME280;60383;46.626;18.866;2023-03-03T17:35:39;100579.50;;;7.25;85.97
58072;BME280;60383;46.626;18.866;2023-03-03T17:38:37;100583.13;;;7.14;86.21
58072;BME280;60383;46.626;18.866;2023-03-03T17:41:35;100587.97;;;7.10;86.72
58072;BME280;60383;46.626;18.866;2023-03-03T17:47:12;100585.31;;;6.99;87.15
58072;BME280;60383;46.626;18.866;2023-03-03T17:55:46;100594.75;;;6.51;88.23